Nearby METAR Reports

 

KRDU - Raleigh/Durham, North Carolina, USA
Distance from station: NNW 20mi, 33km
Updated: Mon, 29-Nov-2021 9:51am EST
Few Clouds
Few Clouds
 Wind from N
Wind: N 9 mph , 15 km/h, Gust: 18 mph , 30 km/h
Temperature: 43°F , 6°C
Wind Chill: 38°F , 3°C
Dew Point: 18°F , -8°C
Humidity: 36%
Barometer: 30.10 inHg , 1019.3 hPa
Clouds: Few Clouds
Visibility: 10 miles , 16 km
Cloud details: Few Clouds 25000 ft
2021/11/29 14:51 KRDU 291451Z 01008G16KT 10SM FEW250 06/M08 A3010 RMK AO2 SLP191 T00611083 51024
KJNX - Smithfield Johns, North Carolina, USA
Distance from station: ESE 17mi, 28km
Updated: Mon, 29-Nov-2021 10:15am EST
Clear
Clear
 Wind from N
Wind: N 16 mph , 26 km/h, Gust: 22 mph , 35 km/h
Temperature: 45°F , 7°C
Wind Chill: 38°F , 3°C
Dew Point: 19°F , -7°C
Humidity: 37%
Barometer: 30.09 inHg , 1019 hPa
Clouds: Clear
Visibility: 10 miles , 16 km
2021/11/29 15:15 KJNX 291515Z AUTO 01014G19KT 10SM CLR 07/M07 A3009 RMK AO2
 
KLHZ - Louisburg/Frankl, North Carolina, USA
Distance from station: NE 33mi, 54km
Updated: Mon, 29-Nov-2021 10:15am EST
Clear
Clear
 Wind from NNW
Wind: NNW 10 mph , 17 km/h, Gust: 16 mph , 26 km/h
Temperature: 43°F , 6°C
Wind Chill: 37°F , 3°C
Dew Point: 19°F , -7°C
Humidity: 39%
Barometer: 30.11 inHg , 1019.6 hPa
Clouds: Clear
Visibility: 10 miles , 16 km
2021/11/29 15:15 KLHZ 291515Z AUTO 34009G14KT 10SM CLR 06/M07 A3011 RMK AO2
KPOB - Pope Afb, North Carolina, USA
Distance from station: SSW 37mi, 59km
Updated: Mon, 29-Nov-2021 9:56am EST
Clear
Clear
 Wind from NNE
Wind: NNE 16 mph , 26 km/h
Temperature: 45°F , 7°C
Wind Chill: 38°F , 3°C
Dew Point: 16°F , -9°C
Humidity: 31%
Barometer: 30.08 inHg , 1018.6 hPa
Clouds: Clear
Visibility: 10 miles , 16 km
2021/11/29 14:56 KPOB 291456Z AUTO 02014KT 10SM CLR 07/M09 A3008 RMK AO2 SLP190 T00711089 52024 $
 
KSCR - Siler City, North Carolina, USA
Distance from station: W 47mi, 75km
Updated: Mon, 29-Nov-2021 10:15am EST
Clear
Clear
 Wind from N
Wind: N 15 mph , 24 km/h, Gust: 18 mph , 30 km/h
Temperature: 41°F , 5°C
Wind Chill: 33°F , 1°C
Dew Point: 18°F , -8°C
Humidity: 39%
Barometer: 30.10 inHg , 1019.3 hPa
Clouds: Clear
Visibility: 10 miles , 16 km
2021/11/29 15:15 KSCR 291515Z AUTO 01013G16KT 10SM CLR 05/M08 A3010 RMK AO2 T00511083
KTDF - Roxboro Person, North Carolina, USA
Distance from station: NNW 49mi, 79km
Updated: Mon, 29-Nov-2021 10:15am EST
Clear
Clear
 Wind from NNW
Wind: NNW 10 mph , 17 km/h
Temperature: 41°F , 5°C
Wind Chill: 35°F , 2°C
Dew Point: 18°F , -8°C
Humidity: 39%
Barometer: 30.13 inHg , 1020.3 hPa
Clouds: Clear
Visibility: 10 miles , 16 km
2021/11/29 15:15 KTDF 291515Z AUTO 33009KT 10SM CLR 05/M08 A3013 RMK AO2
 
KSOP - Southern Pines, North Carolina, USA
Distance from station: SW 50mi, 80km
Updated: Mon, 29-Nov-2021 9:56am EST
Clear
Clear
 Wind from varies
Wind: varies 5 mph , 7 km/h
Temperature: 43°F , 6°C
Wind Chill: 40°F , 4°C
Dew Point: 18°F , -8°C
Humidity: 36%
Barometer: 30.10 inHg , 1019.3 hPa
Clouds: Clear
Visibility: 10 miles , 16 km
2021/11/29 14:56 KSOP 291456Z AUTO VRB04KT 10SM CLR 06/M08 A3010 RMK AO2 SLP199 T00611083 53024
KHNZ - Henderson/Oxford, North Carolina, USA
Distance from station: N 52mi, 84km
Updated: Mon, 29-Nov-2021 10:15am EST
Clear
Clear
 Wind from NNW
Wind: NNW 8 mph , 13 km/h
Temperature: 41°F , 5°C
Wind Chill: 36°F , 2°C
Dew Point: 14°F , -10°C
Humidity: 33%
Barometer: 30.09 inHg , 1019 hPa
Clouds: Clear
Visibility: 10 miles , 16 km
2021/11/29 15:15 KHNZ 291515Z AUTO 34007KT 300V010 10SM CLR 05/M10 A3009 RMK AO2 T00491096
 
KBUY - Burlington, North Carolina, USA
Distance from station: NW 54mi, 86km
Updated: Mon, 29-Nov-2021 9:54am EST
Clear
Clear
 Wind from NW
Wind: NW 10 mph , 17 km/h, Gust: 22 mph , 35 km/h
Temperature: 43°F , 6°C
Wind Chill: 37°F , 3°C
Dew Point: 16°F , -9°C
Humidity: 34%
Barometer: 30.11 inHg , 1019.6 hPa
Clouds: Clear
Visibility: 10 miles , 16 km
2021/11/29 14:54 KBUY 291454Z AUTO 32009G19KT 10SM CLR 06/M09 A3011 RMK AO2 SLP197 T00561089 51022
KTNB - Boone Watauga Ct, North Carolina, USA
Distance from station: SE 2mi, 3km
Updated: Mon, 29-Nov-2021 10:10am EST

 Wind from WNW
Wind: WNW 13 mph , 20 km/h, Gust: 22 mph , 35 km/h
Temperature: 27°F , -3°C
Wind Chill: 16°F , -9°C
Dew Point: 12°F , -11°C
Humidity: 54%
Barometer: 30.05 inHg , 1017.6 hPa
Visibility: 10 miles , 16 km
2021/11/29 15:10 KTNB 291510Z AUTO 29011G19KT 10SM M03/M11 A3005 RMK AO2 T10271112
 
KGEV - Jefferson, North Carolina, USA
Distance from station: NE 21mi, 33km
Updated: Mon, 29-Nov-2021 10:15am EST
Clear
Clear
 Wind from NW
Wind: NW 8 mph , 13 km/h
Temperature: 27°F , -3°C
Wind Chill: 19°F , -7°C
Dew Point: 9°F , -13°C
Humidity: 46%
Barometer: 30.04 inHg , 1017.3 hPa
Clouds: Clear
Visibility: 10 miles , 16 km
2021/11/29 15:15 KGEV 291515Z AUTO 31007KT 10SM CLR M03/M13 A3004 RMK AO2 T10271126
KFQD - Rutherfordton, North Carolina, USA
Distance from station: SSW 57mi, 92km
Updated: Mon, 29-Nov-2021 10:15am EST
Clear
Clear
 Wind from N
Wind: N 8 mph , 13 km/h
Temperature: 37°F , 3°C
Wind Chill: 31°F , -1°C
Dew Point: 16°F , -9°C
Humidity: 41%
Barometer: 30.13 inHg , 1020.3 hPa
Clouds: Clear
Visibility: 10 miles , 16 km
2021/11/29 15:15 KFQD 291515Z AUTO 36007KT 10SM CLR 03/M09 A3013 RMK AO2
 
KAVL - Asheville, North Carolina, USA
Distance from station: SW 72mi, 117km
Updated: Mon, 29-Nov-2021 9:54am EST
Clear
Clear
 Wind from NNW
Wind: NNW 18 mph , 30 km/h, Gust: 29 mph , 46 km/h
Temperature: 34°F , 1°C
Wind Chill: 23°F , -5°C
Dew Point: 18°F , -8°C
Humidity: 51%
Barometer: 30.12 inHg , 1020 hPa
Clouds: Clear
Visibility: 10 miles , 16 km
2021/11/29 14:54 KAVL 291454Z 33016G25KT 10SM CLR 01/M08 A3012 RMK AO2 PK WND 32026/1424 SLP203 T00061083 51022